sensor_id;sensor_type;location;lat;lon;timestamp;pressure;altitude;pressure_sealevel;temperature;humidity
48882;BME280;57063;51.406;-2.402;2023-02-16T00:01:42;101083.56;;;5.58;100.00
48882;BME280;57063;51.406;-2.402;2023-02-16T00:04:19;101120.78;;;5.72;100.00
48882;BME280;57063;51.406;-2.402;2023-02-16T00:06:45;101111.34;;;5.74;100.00
48882;BME280;57063;51.406;-2.402;2023-02-16T00:09:11;101120.78;;;5.72;100.00
48882;BME280;57063;51.406;-2.402;2023-02-16T00:11:37;101107.25;;;5.67;100.00
48882;BME280;57063;51.406;-2.402;2023-02-16T00:14:22;101077.75;;;5.52;100.00
48882;BME280;57063;51.406;-2.402;2023-02-16T00:16:54;101103.06;;;5.63;100.00
48882;BME280;57063;51.406;-2.402;2023-02-16T00:19:33;101088.94;;;5.49;100.00
48882;BME280;57063;51.406;-2.402;2023-02-16T00:22:00;101090.38;;;5.60;100.00
48882;BME280;57063;51.406;-2.402;2023-02-16T00:24:27;101105.41;;;5.72;100.00
48882;BME280;57063;51.406;-2.402;2023-02-16T00:26:53;101090.28;;;5.63;100.00
48882;BME280;57063;51.406;-2.402;2023-02-16T00:29:31;101086.00;;;5.63;100.00
48882;BME280;57063;51.406;-2.402;2023-02-16T00:31:58;101059.97;;;5.47;100.00
48882;BME280;57063;51.406;-2.402;2023-02-16T00:34:33;101049.72;;;5.47;100.00
48882;BME280;57063;51.406;-2.402;2023-02-16T00:37:05;101042.19;;;5.41;100.00
48882;BME280;57063;51.406;-2.402;2023-02-16T00:39:31;101058.94;;;5.53;100.00
48882;BME280;57063;51.406;-2.402;2023-02-16T00:42:01;101031.09;;;5.42;100.00
48882;BME280;57063;51.406;-2.402;2023-02-16T00:44:34;101049.53;;;5.53;100.00
48882;BME280;57063;51.406;-2.402;2023-02-16T00:47:20;101063.88;;;5.61;100.00
48882;BME280;57063;51.406;-2.402;2023-02-16T00:49:48;101044.41;;;5.53;100.00
48882;BME280;57063;51.406;-2.402;2023-02-16T00:52:39;101028.41;;;5.47;100.00
48882;BME280;57063;51.406;-2.402;2023-02-16T00:57:42;101030.84;;;5.51;100.00
48882;BME280;57063;51.406;-2.402;2023-02-16T01:00:14;101027.47;;;5.49;100.00
48882;BME280;57063;51.406;-2.402;2023-02-16T01:02:42;101029.38;;;5.41;100.00
48882;BME280;57063;51.406;-2.402;2023-02-16T01:05:08;100999.25;;;5.20;100.00
48882;BME280;57063;51.406;-2.402;2023-02-16T01:07:33;100976.56;;;5.07;100.00
48882;BME280;57063;51.406;-2.402;2023-02-16T01:10:18;100995.13;;;5.14;100.00
48882;BME280;57063;51.406;-2.402;2023-02-16T01:13:02;100982.44;;;5.09;100.00
48882;BME280;57063;51.406;-2.402;2023-02-16T01:15:28;100999.16;;;5.24;100.00
48882;BME280;57063;51.406;-2.402;2023-02-16T01:17:54;101015.88;;;5.36;100.00
48882;BME280;57063;51.406;-2.402;2023-02-16T01:20:24;101002.34;;;5.31;100.00
48882;BME280;57063;51.406;-2.402;2023-02-16T01:22:50;100997.44;;;5.23;100.00
48882;BME280;57063;51.406;-2.402;2023-02-16T01:25:16;100988.00;;;5.25;100.00
48882;BME280;57063;51.406;-2.402;2023-02-16T01:27:42;100991.47;;;5.24;100.00
48882;BME280;57063;51.406;-2.402;2023-02-16T01:30:15;100994.47;;;5.39;100.00
48882;BME280;57063;51.406;-2.402;2023-02-16T01:32:41;100979.19;;;5.37;100.00
48882;BME280;57063;51.406;-2.402;2023-02-16T01:35:08;100989.88;;;5.51;100.00
48882;BME280;57063;51.406;-2.402;2023-02-16T01:37:34;100956.72;;;5.47;100.00
48882;BME280;57063;51.406;-2.402;2023-02-16T01:40:00;100972.41;;;5.66;100.00
48882;BME280;57063;51.406;-2.402;2023-02-16T01:42:48;100963.94;;;5.64;100.00
48882;BME280;57063;51.406;-2.402;2023-02-16T01:45:29;100983.72;;;5.88;100.00
48882;BME280;57063;51.406;-2.402;2023-02-16T01:48:02;100966.28;;;5.70;100.00
48882;BME280;57063;51.406;-2.402;2023-02-16T01:50:40;100958.09;;;5.88;100.00
48882;BME280;57063;51.406;-2.402;2023-02-16T01:53:30;100965.72;;;5.90;100.00
48882;BME280;57063;51.406;-2.402;2023-02-16T01:55:59;100973.25;;;5.96;100.00
48882;BME280;57063;51.406;-2.402;2023-02-16T01:58:41;100976.66;;;5.96;100.00
48882;BME280;57063;51.406;-2.402;2023-02-16T02:03:57;100931.91;;;5.78;100.00
48882;BME280;57063;51.406;-2.402;2023-02-16T02:06:41;100926.53;;;5.88;100.00
48882;BME280;57063;51.406;-2.402;2023-02-16T02:09:23;100931.94;;;6.07;100.00
48882;BME280;57063;51.406;-2.402;2023-02-16T02:11:55;100953.69;;;6.21;100.00
48882;BME280;57063;51.406;-2.402;2023-02-16T02:14:32;100909.94;;;5.99;100.00
48882;BME280;57063;51.406;-2.402;2023-02-16T02:17:06;100927.50;;;6.38;100.00
48882;BME280;57063;51.406;-2.402;2023-02-16T02:25:47;100903.03;;;6.30;100.00
48882;BME280;57063;51.406;-2.402;2023-02-16T02:31:03;100918.41;;;6.56;100.00
48882;BME280;57063;51.406;-2.402;2023-02-16T02:33:51;100915.69;;;6.61;100.00
48882;BME280;57063;51.406;-2.402;2023-02-16T02:41:49;100908.25;;;6.78;100.00
48882;BME280;57063;51.406;-2.402;2023-02-16T02:44:36;100895.50;;;6.75;100.00
48882;BME280;57063;51.406;-2.402;2023-02-16T02:47:04;100913.06;;;6.88;100.00
48882;BME280;57063;51.406;-2.402;2023-02-16T02:49:29;100897.09;;;6.79;100.00
48882;BME280;57063;51.406;-2.402;2023-02-16T02:51:55;100903.56;;;6.90;100.00
48882;BME280;57063;51.406;-2.402;2023-02-16T02:54:25;100912.06;;;6.92;100.00
48882;BME280;57063;51.406;-2.402;2023-02-16T02:57:32;100861.59;;;6.67;100.00
48882;BME280;57063;51.406;-2.402;2023-02-16T03:05:53;100866.19;;;6.82;100.00
48882;BME280;57063;51.406;-2.402;2023-02-16T03:08:23;100840.94;;;6.72;100.00
48882;BME280;57063;51.406;-2.402;2023-02-16T03:11:07;100868.25;;;6.98;100.00
48882;BME280;57063;51.406;-2.402;2023-02-16T03:16:44;100828.81;;;6.75;100.00
48882;BME280;57063;51.406;-2.402;2023-02-16T03:19:13;100839.34;;;6.93;100.00
48882;BME280;57063;51.406;-2.402;2023-02-16T03:22:00;100820.13;;;6.79;100.00
48882;BME280;57063;51.406;-2.402;2023-02-16T03:24:44;100819.81;;;6.89;100.00
48882;BME280;57063;51.406;-2.402;2023-02-16T03:27:39;100837.50;;;6.96;100.00
48882;BME280;57063;51.406;-2.402;2023-02-16T03:30:24;100827.97;;;7.00;100.00
48882;BME280;57063;51.406;-2.402;2023-02-16T03:32:51;100838.00;;;7.06;100.00
48882;BME280;57063;51.406;-2.402;2023-02-16T03:35:18;100805.47;;;6.83;100.00
48882;BME280;57063;51.406;-2.402;2023-02-16T03:37:44;100811.94;;;6.93;100.00
48882;BME280;57063;51.406;-2.402;2023-02-16T03:40:12;100820.28;;;7.00;100.00
48882;BME280;57063;51.406;-2.402;2023-02-16T03:43:02;100787.69;;;6.78;100.00
48882;BME280;57063;51.406;-2.402;2023-02-16T03:45:29;100811.66;;;7.01;100.00
48882;BME280;57063;51.406;-2.402;2023-02-16T03:47:55;100784.75;;;6.88;100.00
48882;BME280;57063;51.406;-2.402;2023-02-16T03:50:20;100824.75;;;7.17;100.00
48882;BME280;57063;51.406;-2.402;2023-02-16T03:52:46;100810.41;;;7.11;100.00
48882;BME280;57063;51.406;-2.402;2023-02-16T03:55:12;100809.25;;;7.20;100.00
48882;BME280;57063;51.406;-2.402;2023-02-16T03:57:38;100771.38;;;7.03;100.00
48882;BME280;57063;51.406;-2.402;2023-02-16T04:00:04;100799.78;;;7.22;100.00
48882;BME280;57063;51.406;-2.402;2023-02-16T04:02:30;100775.56;;;7.05;100.00
48882;BME280;57063;51.406;-2.402;2023-02-16T04:04:55;100762.44;;;7.13;100.00
48882;BME280;57063;51.406;-2.402;2023-02-16T04:07:21;100755.91;;;7.04;100.00
48882;BME280;57063;51.406;-2.402;2023-02-16T04:09:46;100762.44;;;7.13;100.00
48882;BME280;57063;51.406;-2.402;2023-02-16T04:12:12;100775.09;;;7.18;100.00
48882;BME280;57063;51.406;-2.402;2023-02-16T04:14:57;100794.22;;;7.33;100.00
48882;BME280;57063;51.406;-2.402;2023-02-16T04:17:23;100773.25;;;7.21;100.00
48882;BME280;57063;51.406;-2.402;2023-02-16T04:19:48;100776.84;;;7.17;100.00
48882;BME280;57063;51.406;-2.402;2023-02-16T04:22:14;100757.31;;;7.13;100.00
48882;BME280;57063;51.406;-2.402;2023-02-16T04:24:39;100791.78;;;7.29;100.00
48882;BME280;57063;51.406;-2.402;2023-02-16T04:27:05;100779.66;;;7.33;100.00
48882;BME280;57063;51.406;-2.402;2023-02-16T04:29:31;100766.09;;;7.29;100.00
48882;BME280;57063;51.406;-2.402;2023-02-16T04:31:56;100765.50;;;7.23;100.00
48882;BME280;57063;51.406;-2.402;2023-02-16T04:34:22;100787.03;;;7.41;100.00
48882;BME280;57063;51.406;-2.402;2023-02-16T04:36:48;100747.53;;;7.23;100.00
48882;BME280;57063;51.406;-2.402;2023-02-16T04:39:13;100757.91;;;7.42;100.00
48882;BME280;57063;51.406;-2.402;2023-02-16T04:41:39;100754.53;;;7.41;100.00
48882;BME280;57063;51.406;-2.402;2023-02-16T04:44:05;100758.75;;;7.42;100.00
48882;BME280;57063;51.406;-2.402;2023-02-16T04:46:30;100749.78;;;7.31;100.00
48882;BME280;57063;51.406;-2.402;2023-02-16T04:48:56;100764.72;;;7.43;100.00
48882;BME280;57063;51.406;-2.402;2023-02-16T04:51:22;100739.66;;;7.27;100.00
48882;BME280;57063;51.406;-2.402;2023-02-16T04:53:47;100736.13;;;7.30;100.00
48882;BME280;57063;51.406;-2.402;2023-02-16T04:56:13;100756.88;;;7.46;100.00
48882;BME280;57063;51.406;-2.402;2023-02-16T04:58:39;100767.94;;;7.48;100.00
48882;BME280;57063;51.406;-2.402;2023-02-16T05:01:04;100717.31;;;7.29;100.00
48882;BME280;57063;51.406;-2.402;2023-02-16T05:03:30;100756.34;;;7.38;100.00
48882;BME280;57063;51.406;-2.402;2023-02-16T05:05:55;100768.72;;;7.50;100.00
48882;BME280;57063;51.406;-2.402;2023-02-16T05:08:21;100757.31;;;7.35;100.00
48882;BME280;57063;51.406;-2.402;2023-02-16T05:10:47;100769.50;;;7.52;100.00
48882;BME280;57063;51.406;-2.402;2023-02-16T05:13:35;100755.09;;;7.48;100.00
48882;BME280;57063;51.406;-2.402;2023-02-16T05:16:20;100749.66;;;7.34;100.00
48882;BME280;57063;51.406;-2.402;2023-02-16T05:18:46;100761.50;;;7.38;100.00
48882;BME280;57063;51.406;-2.402;2023-02-16T05:21:12;100775.72;;;7.46;100.00
48882;BME280;57063;51.406;-2.402;2023-02-16T05:23:59;100747.03;;;7.35;100.00
48882;BME280;57063;51.406;-2.402;2023-02-16T05:26:25;100745.59;;;7.50;100.00
48882;BME280;57063;51.406;-2.402;2023-02-16T05:28:51;100734.69;;;7.45;100.00
48882;BME280;57063;51.406;-2.402;2023-02-16T05:31:16;100749.66;;;7.56;100.00
48882;BME280;57063;51.406;-2.402;2023-02-16T05:33:42;100760.06;;;7.53;100.00
48882;BME280;57063;51.406;-2.402;2023-02-16T05:36:08;100737.03;;;7.51;100.00
48882;BME280;57063;51.406;-2.402;2023-02-16T05:38:34;100737.84;;;7.52;100.00
48882;BME280;57063;51.406;-2.402;2023-02-16T05:40:59;100723.63;;;7.43;100.00
48882;BME280;57063;51.406;-2.402;2023-02-16T05:43:25;100762.88;;;7.68;100.00
48882;BME280;57063;51.406;-2.402;2023-02-16T05:45:50;100725.41;;;7.41;100.00
48882;BME280;57063;51.406;-2.402;2023-02-16T05:48:16;100735.31;;;7.50;100.00
48882;BME280;57063;51.406;-2.402;2023-02-16T05:50:42;100719.41;;;7.42;100.00
48882;BME280;57063;51.406;-2.402;2023-02-16T05:53:07;100723.75;;;7.40;100.00
48882;BME280;57063;51.406;-2.402;2023-02-16T05:55:33;100713.34;;;7.43;100.00
48882;BME280;57063;51.406;-2.402;2023-02-16T05:57:58;100727.75;;;7.47;100.00
48882;BME280;57063;51.406;-2.402;2023-02-16T06:00:24;100716.09;;;7.38;100.00
48882;BME280;57063;51.406;-2.402;2023-02-16T06:02:49;100712.75;;;7.36;100.00
48882;BME280;57063;51.406;-2.402;2023-02-16T06:05:15;100700.88;;;7.34;100.00
48882;BME280;57063;51.406;-2.402;2023-02-16T06:07:41;100696.66;;;7.33;100.00
48882;BME280;57063;51.406;-2.402;2023-02-16T06:10:07;100725.84;;;7.52;100.00
48882;BME280;57063;51.406;-2.402;2023-02-16T06:12:32;100699.91;;;7.36;100.00
48882;BME280;57063;51.406;-2.402;2023-02-16T06:14:59;100736.88;;;7.54;100.00
48882;BME280;57063;51.406;-2.402;2023-02-16T06:17:25;100707.69;;;7.35;100.00
48882;BME280;57063;51.406;-2.402;2023-02-16T06:19:52;100706.66;;;7.39;100.00
48882;BME280;57063;51.406;-2.402;2023-02-16T06:22:18;100735.75;;;7.61;100.00
48882;BME280;57063;51.406;-2.402;2023-02-16T06:24:44;100707.34;;;7.44;100.00
48882;BME280;57063;51.406;-2.402;2023-02-16T06:27:09;100712.03;;;7.55;100.00
48882;BME280;57063;51.406;-2.402;2023-02-16T06:29:35;100714.59;;;7.55;100.00
48882;BME280;57063;51.406;-2.402;2023-02-16T06:32:01;100695.50;;;7.40;100.00
48882;BME280;57063;51.406;-2.402;2023-02-16T06:34:26;100716.94;;;7.61;100.00
48882;BME280;57063;51.406;-2.402;2023-02-16T06:36:52;100696.28;;;7.42;100.00
48882;BME280;57063;51.406;-2.402;2023-02-16T06:39:19;100681.66;;;7.44;100.00
48882;BME280;57063;51.406;-2.402;2023-02-16T06:41:45;100684.31;;;7.41;100.00
48882;BME280;57063;51.406;-2.402;2023-02-16T06:44:13;100712.72;;;7.58;100.00
48882;BME280;57063;51.406;-2.402;2023-02-16T06:46:44;100710.84;;;7.63;100.00
48882;BME280;57063;51.406;-2.402;2023-02-16T06:49:11;100702.44;;;7.58;100.00
48882;BME280;57063;51.406;-2.402;2023-02-16T06:51:37;100705.56;;;7.66;100.00
48882;BME280;57063;51.406;-2.402;2023-02-16T06:54:03;100690.88;;;7.48;100.00
48882;BME280;57063;51.406;-2.402;2023-02-16T06:56:31;100698.28;;;7.56;100.00
48882;BME280;57063;51.406;-2.402;2023-02-16T06:58:57;100686.94;;;7.61;100.00
48882;BME280;57063;51.406;-2.402;2023-02-16T07:01:25;100732.41;;;7.80;100.00
48882;BME280;57063;51.406;-2.402;2023-02-16T07:03:52;100714.28;;;7.62;100.00
48882;BME280;57063;51.406;-2.402;2023-02-16T07:06:19;100742.69;;;7.80;100.00
48882;BME280;57063;51.406;-2.402;2023-02-16T07:08:47;100719.28;;;7.65;100.00
48882;BME280;57063;51.406;-2.402;2023-02-16T07:11:13;100722.63;;;7.67;100.00
48882;BME280;57063;51.406;-2.402;2023-02-16T07:13:38;100730.16;;;7.72;100.00
48882;BME280;57063;51.406;-2.402;2023-02-16T07:16:05;100735.75;;;7.82;100.00
48882;BME280;57063;51.406;-2.402;2023-02-16T07:18:32;100737.44;;;7.83;100.00
48882;BME280;57063;51.406;-2.402;2023-02-16T07:20:58;100737.03;;;7.92;100.00
48882;BME280;57063;51.406;-2.402;2023-02-16T07:23:23;100728.81;;;7.84;100.00
48882;BME280;57063;51.406;-2.402;2023-02-16T07:25:49;100721.50;;;7.75;100.00
48882;BME280;57063;51.406;-2.402;2023-02-16T07:28:14;100730.75;;;7.79;100.00
48882;BME280;57063;51.406;-2.402;2023-02-16T07:30:40;100739.81;;;7.87;100.00
48882;BME280;57063;51.406;-2.402;2023-02-16T07:33:06;100723.69;;;7.84;100.00
48882;BME280;57063;51.406;-2.402;2023-02-16T07:35:33;100752.81;;;8.05;100.00
48882;BME280;57063;51.406;-2.402;2023-02-16T07:37:59;100735.00;;;8.00;100.00
48882;BME280;57063;51.406;-2.402;2023-02-16T07:40:24;100738.22;;;8.05;100.00
48882;BME280;57063;51.406;-2.402;2023-02-16T07:42:50;100744.03;;;8.09;100.00
48882;BME280;57063;51.406;-2.402;2023-02-16T07:45:16;100739.09;;;8.04;100.00
48882;BME280;57063;51.406;-2.402;2023-02-16T07:47:42;100762.00;;;8.10;100.00
48882;BME280;57063;51.406;-2.402;2023-02-16T07:50:08;100761.34;;;8.26;100.00
48882;BME280;57063;51.406;-2.402;2023-02-16T07:52:34;100730.13;;;8.14;100.00
48882;BME280;57063;51.406;-2.402;2023-02-16T07:54:59;100728.56;;;8.10;100.00
48882;BME280;57063;51.406;-2.402;2023-02-16T07:57:26;100776.19;;;8.19;100.00
48882;BME280;57063;51.406;-2.402;2023-02-16T07:59:52;100763.28;;;8.21;100.00
48882;BME280;57063;51.406;-2.402;2023-02-16T08:02:20;100747.97;;;8.18;100.00
48882;BME280;57063;51.406;-2.402;2023-02-16T08:04:49;100733.56;;;8.13;100.00
48882;BME280;57063;51.406;-2.402;2023-02-16T08:07:17;100744.34;;;8.22;100.00
48882;BME280;57063;51.406;-2.402;2023-02-16T08:09:43;100742.69;;;8.21;100.00
48882;BME280;57063;51.406;-2.402;2023-02-16T08:12:13;100751.03;;;8.26;100.00
48882;BME280;57063;51.406;-2.402;2023-02-16T08:14:39;100736.44;;;8.26;100.00
48882;BME280;57063;51.406;-2.402;2023-02-16T08:17:06;100759.75;;;8.44;100.00
48882;BME280;57063;51.406;-2.402;2023-02-16T08:19:32;100740.38;;;8.35;100.00
48882;BME280;57063;51.406;-2.402;2023-02-16T08:21:59;100750.31;;;8.44;100.00
48882;BME280;57063;51.406;-2.402;2023-02-16T08:24:27;100734.97;;;8.41;100.00
48882;BME280;57063;51.406;-2.402;2023-02-16T08:26:53;100780.25;;;8.66;100.00
48882;BME280;57063;51.406;-2.402;2023-02-16T08:29:23;100759.09;;;8.59;100.00
48882;BME280;57063;51.406;-2.402;2023-02-16T08:31:50;100780.66;;;8.75;100.00
48882;BME280;57063;51.406;-2.402;2023-02-16T08:34:17;100760.53;;;8.65;100.00
48882;BME280;57063;51.406;-2.402;2023-02-16T08:36:45;100770.44;;;8.74;100.00
48882;BME280;57063;51.406;-2.402;2023-02-16T08:39:18;100764.09;;;8.81;100.00
48882;BME280;57063;51.406;-2.402;2023-02-16T08:41:46;100780.66;;;8.94;100.00
48882;BME280;57063;51.406;-2.402;2023-02-16T08:44:13;100751.72;;;8.89;100.00
48882;BME280;57063;51.406;-2.402;2023-02-16T08:46:41;100739.75;;;8.88;100.00
48882;BME280;57063;51.406;-2.402;2023-02-16T08:49:08;100753.13;;;8.96;100.00
48882;BME280;57063;51.406;-2.402;2023-02-16T08:51:37;100759.22;;;8.94;100.00
48882;BME280;57063;51.406;-2.402;2023-02-16T08:54:05;100764.84;;;9.02;100.00
48882;BME280;57063;51.406;-2.402;2023-02-16T08:56:32;100754.50;;;9.04;100.00
48882;BME280;57063;51.406;-2.402;2023-02-16T08:58:58;100740.03;;;9.01;100.00
48882;BME280;57063;51.406;-2.402;2023-02-16T09:01:24;100780.94;;;9.26;100.00
48882;BME280;57063;51.406;-2.402;2023-02-16T09:03:51;100757.28;;;9.18;100.00
48882;BME280;57063;51.406;-2.402;2023-02-16T09:06:18;100772.28;;;9.46;100.00
48882;BME280;57063;51.406;-2.402;2023-02-16T09:08:51;100756.56;;;9.33;100.00
48882;BME280;57063;51.406;-2.402;2023-02-16T09:11:17;100755.50;;;9.37;100.00
48882;BME280;57063;51.406;-2.402;2023-02-16T09:13:43;100759.25;;;9.49;100.00
48882;BME280;57063;51.406;-2.402;2023-02-16T09:16:11;100758.81;;;9.76;100.00
48882;BME280;57063;51.406;-2.402;2023-02-16T09:18:38;100750.72;;;9.83;100.00
48882;BME280;57063;51.406;-2.402;2023-02-16T09:21:08;100765.50;;;9.97;100.00
48882;BME280;57063;51.406;-2.402;2023-02-16T09:23:39;100782.09;;;10.09;100.00
48882;BME280;57063;51.406;-2.402;2023-02-16T09:26:05;100786.97;;;10.15;100.00
48882;BME280;57063;51.406;-2.402;2023-02-16T09:28:36;100799.63;;;10.20;100.00
48882;BME280;57063;51.406;-2.402;2023-02-16T09:31:25;100789.97;;;10.23;100.00
48882;BME280;57063;51.406;-2.402;2023-02-16T09:33:54;100777.72;;;10.28;100.00
48882;BME280;57063;51.406;-2.402;2023-02-16T09:36:21;100787.22;;;10.26;100.00
48882;BME280;57063;51.406;-2.402;2023-02-16T09:38:47;100788.03;;;10.28;100.00
48882;BME280;57063;51.406;-2.402;2023-02-16T09:44:25;100802.88;;;10.41;100.00
48882;BME280;57063;51.406;-2.402;2023-02-16T09:46:57;100779.44;;;10.45;100.00
48882;BME280;57063;51.406;-2.402;2023-02-16T09:49:36;100799.44;;;10.58;100.00
48882;BME280;57063;51.406;-2.402;2023-02-16T09:54:44;100791.97;;;11.02;100.00
48882;BME280;57063;51.406;-2.402;2023-02-16T09:57:34;100804.78;;;11.51;100.00
48882;BME280;57063;51.406;-2.402;2023-02-16T10:00:10;100786.19;;;11.29;100.00
48882;BME280;57063;51.406;-2.402;2023-02-16T10:05:19;100792.00;;;11.48;100.00
48882;BME280;57063;51.406;-2.402;2023-02-16T10:08:37;100811.84;;;11.64;100.00
48882;BME280;57063;51.406;-2.402;2023-02-16T10:11:02;100784.84;;;11.53;100.00
48882;BME280;57063;51.406;-2.402;2023-02-16T10:15:57;100786.69;;;11.51;100.00
48882;BME280;57063;51.406;-2.402;2023-02-16T10:18:31;100813.75;;;11.76;100.00
48882;BME280;57063;51.406;-2.402;2023-02-16T10:21:01;100831.59;;;11.81;100.00
48882;BME280;57063;51.406;-2.402;2023-02-16T10:23:55;100836.03;;;11.63;100.00
48882;BME280;57063;51.406;-2.402;2023-02-16T10:26:36;100819.63;;;11.48;100.00
48882;BME280;57063;51.406;-2.402;2023-02-16T10:29:14;100833.53;;;11.45;100.00
48882;BME280;57063;51.406;-2.402;2023-02-16T10:37:18;100830.38;;;11.40;100.00
48882;BME280;57063;51.406;-2.402;2023-02-16T10:45:36;100852.38;;;11.79;100.00
48882;BME280;57063;51.406;-2.402;2023-02-16T10:48:08;100865.91;;;12.45;100.00
48882;BME280;57063;51.406;-2.402;2023-02-16T10:50:56;100875.94;;;12.79;100.00
48882;BME280;57063;51.406;-2.402;2023-02-16T10:55:56;100864.41;;;12.40;100.00
48882;BME280;57063;51.406;-2.402;2023-02-16T10:58:25;100866.25;;;12.38;100.00
48882;BME280;57063;51.406;-2.402;2023-02-16T11:01:20;100870.56;;;12.97;100.00
48882;BME280;57063;51.406;-2.402;2023-02-16T11:03:50;100874.75;;;13.28;98.66
48882;BME280;57063;51.406;-2.402;2023-02-16T11:06:22;100857.06;;;13.35;96.89
48882;BME280;57063;51.406;-2.402;2023-02-16T11:08:54;100860.41;;;13.37;93.31
48882;BME280;57063;51.406;-2.402;2023-02-16T11:11:27;100879.84;;;13.01;96.82
48882;BME280;57063;51.406;-2.402;2023-02-16T11:14:02;100855.13;;;12.95;96.52
48882;BME280;57063;51.406;-2.402;2023-02-16T11:16:28;100872.41;;;13.23;94.28
48882;BME280;57063;51.406;-2.402;2023-02-16T11:19:05;100848.84;;;14.09;92.07
48882;BME280;57063;51.406;-2.402;2023-02-16T11:21:45;100859.16;;;14.49;85.08
48882;BME280;57063;51.406;-2.402;2023-02-16T11:24:22;100859.47;;;15.09;80.00
48882;BME280;57063;51.406;-2.402;2023-02-16T11:27:19;100871.34;;;15.50;78.02
48882;BME280;57063;51.406;-2.402;2023-02-16T11:29:44;100860.22;;;17.66;69.12
48882;BME280;57063;51.406;-2.402;2023-02-16T11:32:11;100848.84;;;20.12;59.62
48882;BME280;57063;51.406;-2.402;2023-02-16T11:34:49;100871.88;;;20.84;55.81
48882;BME280;57063;51.406;-2.402;2023-02-16T11:37:41;100864.84;;;22.30;51.10
48882;BME280;57063;51.406;-2.402;2023-02-16T11:40:17;100862.81;;;20.69;53.86
48882;BME280;57063;51.406;-2.402;2023-02-16T11:42:48;100842.72;;;19.23;59.33
48882;BME280;57063;51.406;-2.402;2023-02-16T11:45:23;100849.88;;;19.21;59.00
48882;BME280;57063;51.406;-2.402;2023-02-16T11:48:03;100832.00;;;17.05;66.18
48882;BME280;57063;51.406;-2.402;2023-02-16T11:50:31;100828.44;;;17.06;65.50
48882;BME280;57063;51.406;-2.402;2023-02-16T11:55:47;100845.38;;;14.62;77.09
48882;BME280;57063;51.406;-2.402;2023-02-16T11:58:25;100844.09;;;14.29;79.24
48882;BME280;57063;51.406;-2.402;2023-02-16T12:01:21;100821.63;;;14.15;79.84
48882;BME280;57063;51.406;-2.402;2023-02-16T12:09:24;100847.81;;;13.31;89.98
48882;BME280;57063;51.406;-2.402;2023-02-16T12:12:15;100854.69;;;13.59;87.14
48882;BME280;57063;51.406;-2.402;2023-02-16T12:20:29;100860.28;;;12.52;95.46
48882;BME280;57063;51.406;-2.402;2023-02-16T12:23:09;100840.28;;;11.95;99.85
48882;BME280;57063;51.406;-2.402;2023-02-16T12:39:30;100863.47;;;13.29;86.44
48882;BME280;57063;51.406;-2.402;2023-02-16T12:45:13;100869.84;;;12.80;89.51
48882;BME280;57063;51.406;-2.402;2023-02-16T12:47:45;100855.03;;;12.97;88.01
48882;BME280;57063;51.406;-2.402;2023-02-16T12:53:05;100864.81;;;14.16;81.21
48882;BME280;57063;51.406;-2.402;2023-02-16T12:55:47;100849.38;;;14.40;79.41
48882;BME280;57063;51.406;-2.402;2023-02-16T12:58:16;100870.38;;;14.50;77.51
48882;BME280;57063;51.406;-2.402;2023-02-16T13:00:53;100868.09;;;14.32;78.85
48882;BME280;57063;51.406;-2.402;2023-02-16T13:03:35;100842.78;;;13.96;79.81
48882;BME280;57063;51.406;-2.402;2023-02-16T13:06:35;100877.16;;;14.00;79.16
48882;BME280;57063;51.406;-2.402;2023-02-16T13:12:04;100853.56;;;13.90;80.14
48882;BME280;57063;51.406;-2.402;2023-02-16T13:14:34;100859.44;;;13.52;82.69
48882;BME280;57063;51.406;-2.402;2023-02-16T13:17:09;100883.25;;;13.44;84.06
48882;BME280;57063;51.406;-2.402;2023-02-16T13:19:35;100874.47;;;13.04;85.48
48882;BME280;57063;51.406;-2.402;2023-02-16T13:27:21;100892.19;;;12.23;93.44
48882;BME280;57063;51.406;-2.402;2023-02-16T13:45:45;100902.91;;;11.53;95.95
48882;BME280;57063;51.406;-2.402;2023-02-16T13:48:36;100893.31;;;11.23;99.02
48882;BME280;57063;51.406;-2.402;2023-02-16T13:51:07;100893.88;;;11.12;99.39
48882;BME280;57063;51.406;-2.402;2023-02-16T13:53:38;100888.84;;;11.09;99.28
48882;BME280;57063;51.406;-2.402;2023-02-16T13:58:53;100896.50;;;10.95;100.00
48882;BME280;57063;51.406;-2.402;2023-02-16T14:03:56;100895.16;;;10.53;100.00
48882;BME280;57063;51.406;-2.402;2023-02-16T14:17:27;100893.66;;;10.66;100.00
48882;BME280;57063;51.406;-2.402;2023-02-16T14:22:49;100899.97;;;10.78;100.00
48882;BME280;57063;51.406;-2.402;2023-02-16T14:30:30;100887.72;;;10.64;100.00
48882;BME280;57063;51.406;-2.402;2023-02-16T14:35:31;100879.19;;;10.80;100.00
48882;BME280;57063;51.406;-2.402;2023-02-16T14:38:04;100879.19;;;10.80;100.00
48882;BME280;57063;51.406;-2.402;2023-02-16T14:43:03;100856.91;;;10.61;100.00
48882;BME280;57063;51.406;-2.402;2023-02-16T14:51:33;100851.16;;;10.89;100.00
48882;BME280;57063;51.406;-2.402;2023-02-16T14:57:22;100877.03;;;11.05;100.00
48882;BME280;57063;51.406;-2.402;2023-02-16T14:59:47;100876.25;;;11.37;98.61
48882;BME280;57063;51.406;-2.402;2023-02-16T15:02:30;100859.53;;;11.10;99.17
48882;BME280;57063;51.406;-2.402;2023-02-16T15:04:56;100878.91;;;11.35;98.35
48882;BME280;57063;51.406;-2.402;2023-02-16T15:07:24;100879.06;;;11.32;98.47
48882;BME280;57063;51.406;-2.402;2023-02-16T15:09:55;100854.03;;;11.17;96.99
48882;BME280;57063;51.406;-2.402;2023-02-16T15:12:29;100875.91;;;11.27;97.54
48882;BME280;57063;51.406;-2.402;2023-02-16T15:15:01;100881.56;;;11.33;94.70
48882;BME280;57063;51.406;-2.402;2023-02-16T15:17:33;100885.91;;;11.33;94.11
48882;BME280;57063;51.406;-2.402;2023-02-16T15:20:07;100893.16;;;11.42;93.25
48882;BME280;57063;51.406;-2.402;2023-02-16T15:22:36;100886.25;;;11.59;91.54
48882;BME280;57063;51.406;-2.402;2023-02-16T15:25:29;100885.47;;;11.72;89.13
48882;BME280;57063;51.406;-2.402;2023-02-16T15:30:44;100885.34;;;11.44;90.30